Time;durP1;ratioP1;P1;durP2;ratioP2;P2;SDS_P1;SDS_P2;PMS_P1;PMS_P2;Temp;Humidity;BMP_temperature;BMP_pressure;BME280_temperature;BME280_humidity;BME280_pressure;Samples;Min_cycle;Max_cycle;Signal;HPM_P1;HPM_P2
2021/06/22 00:01:50;;;;;;;7.63;5.60;;;;;;;;;;5059470;28;20021;-65
2021/06/22 00:04:16;;;;;;;8.47;5.77;;;;;;;;;;5064129;28;20274;-65
2021/06/22 00:06:41;;;;;;;12.87;6.13;;;;;;;;;;5066002;28;20305;-65
2021/06/22 00:09:06;;;;;;;7.32;5.03;;;;;;;;;;5069793;28;20312;-65
2021/06/22 00:11:31;;;;;;;6.57;5.20;;;;;;;;;;5061691;28;20012;-66
2021/06/22 00:13:58;;;;;;;7.30;5.03;;;;;;;;;;5064903;28;20577;-65
2021/06/22 00:16:23;;;;;;;9.98;4.70;;;;;;;;;;5067662;28;20342;-66
2021/06/22 00:18:48;;;;;;;7.97;5.00;;;;;;;;;;5056971;28;20035;-65
2021/06/22 00:21:14;;;;;;;6.67;4.37;;;;;;;;;;5058866;28;20016;-65
2021/06/22 00:23:39;;;;;;;5.57;4.68;;;;;;;;;;5067024;28;20314;-66
2021/06/22 00:26:04;;;;;;;4.93;3.47;;;;;;;;;;5062364;28;20034;-65
2021/06/22 00:28:29;;;;;;;4.50;3.27;;;;;;;;;;5057923;28;20822;-66
2021/06/22 00:30:54;;;;;;;4.47;2.87;;;;;;;;;;5061548;28;20271;-66
2021/06/22 00:33:19;;;;;;;6.53;2.57;;;;;;;;;;5061674;28;20259;-65
2021/06/22 00:35:45;;;;;;;3.72;2.13;;;;;;;;;;5063991;28;20741;-66
2021/06/22 00:38:10;;;;;;;4.82;2.63;;;;;;;;;;5065604;28;20501;-65
2021/06/22 00:40:35;;;;;;;5.60;3.87;;;;;;;;;;5068436;28;20028;-65
2021/06/22 00:43:00;;;;;;;6.73;3.93;;;;;;;;;;5070102;28;20377;-65
2021/06/22 00:45:29;;;;;;;8.60;4.93;;;;;;;;;;5070266;28;20275;-66
2021/06/22 00:47:55;;;;;;;9.00;4.80;;;;;;;;;;5070753;28;20315;-66
2021/06/22 00:50:20;;;;;;;10.05;4.97;;;;;;;;;;5070287;28;20020;-67
2021/06/22 00:52:46;;;;;;;7.70;4.85;;;;;;;;;;5069160;28;20402;-66
2021/06/22 00:55:11;;;;;;;7.60;3.53;;;;;;;;;;5070078;28;20017;-65
2021/06/22 00:57:37;;;;;;;9.40;4.68;;;;;;;;;;5067676;28;20025;-65
2021/06/22 01:00:07;;;;;;;7.43;3.78;;;;;;;;;;5067060;28;20470;-65
2021/06/22 01:02:33;;;;;;;5.07;3.17;;;;;;;;;;5069681;28;20424;-66
2021/06/22 01:04:58;;;;;;;5.13;3.28;;;;;;;;;;5070098;28;20078;-64
2021/06/22 01:07:24;;;;;;;3.73;2.67;;;;;;;;;;5070346;28;20020;-65
2021/06/22 01:09:49;;;;;;;6.47;2.88;;;;;;;;;;5070256;28;20258;-66
2021/06/22 01:12:15;;;;;;;5.07;2.85;;;;;;;;;;5070388;28;20028;-64
2021/06/22 01:14:41;;;;;;;2.88;2.15;;;;;;;;;;5070141;28;20027;-65
2021/06/22 01:17:06;;;;;;;4.03;2.63;;;;;;;;;;5064005;28;20025;-65
2021/06/22 01:19:32;;;;;;;4.63;2.43;;;;;;;;;;5056346;28;20039;-66
2021/06/22 01:21:58;;;;;;;3.58;2.30;;;;;;;;;;5063825;28;20279;-65
2021/06/22 01:24:23;;;;;;;6.30;2.38;;;;;;;;;;5069684;28;20023;-65
2021/06/22 01:26:50;;;;;;;4.47;2.33;;;;;;;;;;5069716;28;20027;-65
2021/06/22 01:29:15;;;;;;;2.55;1.73;;;;;;;;;;5062914;28;20017;-65
2021/06/22 01:31:41;;;;;;;5.13;2.22;;;;;;;;;;5070207;28;20474;-66
2021/06/22 01:34:06;;;;;;;5.85;2.15;;;;;;;;;;5069965;28;20032;-65
2021/06/22 01:36:34;;;;;;;3.47;1.83;;;;;;;;;;5067952;28;20024;-65
2021/06/22 01:38:59;;;;;;;7.25;2.60;;;;;;;;;;5069264;28;20509;-65
2021/06/22 01:41:25;;;;;;;4.88;2.70;;;;;;;;;;5069731;28;20020;-65
2021/06/22 01:43:50;;;;;;;4.13;3.00;;;;;;;;;;5070036;28;20021;-66
2021/06/22 01:46:15;;;;;;;6.63;3.20;;;;;;;;;;5069408;28;20016;-64
2021/06/22 01:48:41;;;;;;;9.88;3.88;;;;;;;;;;5062072;28;20025;-65
2021/06/22 01:51:06;;;;;;;8.70;4.20;;;;;;;;;;5070024;28;20035;-65
2021/06/22 01:53:31;;;;;;;5.57;3.53;;;;;;;;;;5069880;28;20125;-67
2021/06/22 01:55:56;;;;;;;9.45;3.60;;;;;;;;;;5069878;28;20025;-65
2021/06/22 01:58:22;;;;;;;6.75;3.17;;;;;;;;;;5061619;28;20078;-65
2021/06/22 02:00:50;;;;;;;7.47;3.42;;;;;;;;;;5062193;28;20081;-66
2021/06/22 02:03:16;;;;;;;5.95;4.15;;;;;;;;;;5069599;28;20024;-65
2021/06/22 02:05:42;;;;;;;10.68;4.22;;;;;;;;;;5057623;28;20022;-65
2021/06/22 02:08:08;;;;;;;10.77;5.65;;;;;;;;;;5051500;28;20070;-66
2021/06/22 02:10:33;;;;;;;16.80;8.95;;;;;;;;;;5069488;28;20021;-65
2021/06/22 02:12:58;;;;;;;22.88;10.98;;;;;;;;;;5069609;28;20020;-65
2021/06/22 02:15:23;;;;;;;20.30;11.32;;;;;;;;;;5068822;28;20021;-66
2021/06/22 02:17:49;;;;;;;23.02;12.00;;;;;;;;;;5069104;28;20031;-65
2021/06/22 02:20:14;;;;;;;29.17;13.02;;;;;;;;;;5069158;28;20032;-65
2021/06/22 02:22:40;;;;;;;24.98;14.13;;;;;;;;;;5069194;28;20111;-65
2021/06/22 02:25:06;;;;;;;25.38;12.88;;;;;;;;;;5069448;28;20099;-65
2021/06/22 02:27:32;;;;;;;22.65;13.00;;;;;;;;;;5069100;28;20032;-66
2021/06/22 02:29:58;;;;;;;27.25;13.02;;;;;;;;;;5069249;28;20020;-65
2021/06/22 02:32:23;;;;;;;24.15;12.77;;;;;;;;;;5051637;28;20399;-65
2021/06/22 02:34:49;;;;;;;21.17;11.65;;;;;;;;;;5069336;28;20504;-65
2021/06/22 02:37:14;;;;;;;27.33;12.52;;;;;;;;;;5065737;28;20016;-66
2021/06/22 02:39:40;;;;;;;19.80;12.18;;;;;;;;;;5054789;28;20020;-65
2021/06/22 02:42:05;;;;;;;20.90;12.45;;;;;;;;;;5069492;28;20028;-65
2021/06/22 02:44:31;;;;;;;27.00;13.10;;;;;;;;;;5069107;28;20044;-66
2021/06/22 02:46:56;;;;;;;19.98;12.57;;;;;;;;;;5067653;28;20092;-66
2021/06/22 02:49:21;;;;;;;21.53;11.97;;;;;;;;;;5072637;28;20078;-65
2021/06/22 02:51:47;;;;;;;18.63;11.53;;;;;;;;;;5072526;28;20350;-65
2021/06/22 02:54:12;;;;;;;23.70;12.30;;;;;;;;;;5072641;28;20259;-65
2021/06/22 02:56:37;;;;;;;22.67;12.00;;;;;;;;;;5071560;28;20259;-65
2021/06/22 02:59:02;;;;;;;19.90;11.30;;;;;;;;;;5060990;28;20347;-65
2021/06/22 03:01:27;;;;;;;21.98;11.05;;;;;;;;;;5070565;28;20263;-65
2021/06/22 03:03:53;;;;;;;19.87;11.37;;;;;;;;;;5072459;28;20017;-65
2021/06/22 03:06:18;;;;;;;16.13;9.60;;;;;;;;;;5072236;28;20259;-65
2021/06/22 03:08:43;;;;;;;16.10;9.60;;;;;;;;;;5071444;28;20285;-65
2021/06/22 03:11:08;;;;;;;14.90;9.73;;;;;;;;;;5072331;28;20107;-65
2021/06/22 03:13:34;;;;;;;18.37;9.70;;;;;;;;;;5071918;28;20063;-66
2021/06/22 03:15:59;;;;;;;20.35;10.05;;;;;;;;;;5072123;28;20316;-66
2021/06/22 03:18:24;;;;;;;19.20;9.13;;;;;;;;;;5064286;28;20059;-65
2021/06/22 03:20:49;;;;;;;18.48;9.68;;;;;;;;;;5068591;28;20282;-65
2021/06/22 03:23:14;;;;;;;21.20;8.87;;;;;;;;;;5071901;28;20024;-66
2021/06/22 03:25:39;;;;;;;16.13;8.57;;;;;;;;;;5065029;28;20263;-65
2021/06/22 03:28:06;;;;;;;11.70;8.70;;;;;;;;;;5071995;28;20665;-64
2021/06/22 03:30:31;;;;;;;12.50;8.48;;;;;;;;;;5071727;28;20263;-64
2021/06/22 03:32:56;;;;;;;15.07;8.20;;;;;;;;;;5071850;28;20493;-65
2021/06/22 03:35:26;;;;;;;10.27;6.80;;;;;;;;;;5071769;28;20050;-65
2021/06/22 03:37:51;;;;;;;8.87;6.17;;;;;;;;;;5069740;28;20032;-65
2021/06/22 03:40:17;;;;;;;9.45;5.50;;;;;;;;;;5058078;28;20831;-64
2021/06/22 03:42:44;;;;;;;12.73;5.88;;;;;;;;;;5054807;28;20962;-65
2021/06/22 03:45:09;;;;;;;11.05;4.70;;;;;;;;;;5062803;28;20017;-65
2021/06/22 03:47:34;;;;;;;9.82;5.10;;;;;;;;;;5069705;28;20112;-66
2021/06/22 03:50:00;;;;;;;25.48;9.00;;;;;;;;;;5069416;28;20524;-64
2021/06/22 03:52:25;;;;;;;10.20;5.90;;;;;;;;;;5069849;28;20052;-65
2021/06/22 03:54:50;;;;;;;11.20;6.63;;;;;;;;;;5069459;28;20502;-66
2021/06/22 03:57:15;;;;;;;14.40;6.53;;;;;;;;;;5060197;28;20275;-64
2021/06/22 03:59:41;;;;;;;13.57;6.25;;;;;;;;;;5055807;28;20032;-65
2021/06/22 04:02:06;;;;;;;13.27;6.85;;;;;;;;;;5068434;28;20025;-64
2021/06/22 04:04:31;;;;;;;14.13;6.15;;;;;;;;;;5069304;28;20103;-65
2021/06/22 04:06:57;;;;;;;9.97;6.13;;;;;;;;;;5068956;28;20017;-66
2021/06/22 04:09:25;;;;;;;10.00;5.77;;;;;;;;;;5071222;28;20262;-66
2021/06/22 04:11:51;;;;;;;13.57;5.28;;;;;;;;;;5071268;28;20278;-65
2021/06/22 04:14:16;;;;;;;9.27;4.72;;;;;;;;;;5070735;28;20020;-66
2021/06/22 04:16:41;;;;;;;13.20;5.30;;;;;;;;;;5071092;28;20047;-65
2021/06/22 04:19:06;;;;;;;6.88;4.18;;;;;;;;;;5071345;28;20597;-65
2021/06/22 04:21:32;;;;;;;8.63;5.10;;;;;;;;;;5071359;28;20028;-65
2021/06/22 04:23:57;;;;;;;10.97;3.80;;;;;;;;;;5065860;28;20342;-65
2021/06/22 04:26:22;;;;;;;8.65;4.28;;;;;;;;;;5067600;28;20260;-66
2021/06/22 04:28:47;;;;;;;15.27;5.18;;;;;;;;;;5069414;28;20021;-65
2021/06/22 04:31:13;;;;;;;8.33;3.20;;;;;;;;;;5063492;28;20067;-65
2021/06/22 04:33:38;;;;;;;11.90;3.20;;;;;;;;;;5067531;28;20617;-65
2021/06/22 04:36:03;;;;;;;5.53;2.83;;;;;;;;;;5068338;28;20410;-64
2021/06/22 04:38:29;;;;;;;7.10;2.85;;;;;;;;;;5055612;28;20276;-65
2021/06/22 04:40:54;;;;;;;7.88;4.00;;;;;;;;;;5058409;28;20028;-65
2021/06/22 04:43:19;;;;;;;6.77;4.17;;;;;;;;;;5068563;28;20127;-65
2021/06/22 04:45:44;;;;;;;6.30;2.78;;;;;;;;;;5068190;28;20259;-66
2021/06/22 04:48:09;;;;;;;7.30;3.30;;;;;;;;;;5063001;28;20552;-65
2021/06/22 04:50:35;;;;;;;4.33;2.77;;;;;;;;;;5056467;28;20017;-66
2021/06/22 04:53:00;;;;;;;3.92;2.63;;;;;;;;;;5068623;28;20263;-65
2021/06/22 04:55:25;;;;;;;5.28;3.20;;;;;;;;;;5070033;28;20031;-65
2021/06/22 04:57:51;;;;;;;6.35;3.40;;;;;;;;;;5062695;28;20056;-66
2021/06/22 05:00:17;;;;;;;7.53;2.75;;;;;;;;;;5064073;28;20024;-66
2021/06/22 05:02:42;;;;;;;5.30;3.08;;;;;;;;;;5070477;28;20020;-65
2021/06/22 05:05:08;;;;;;;6.75;3.33;;;;;;;;;;5070214;28;20585;-65
2021/06/22 05:07:33;;;;;;;8.90;3.90;;;;;;;;;;5062811;28;20036;-65
2021/06/22 05:09:59;;;;;;;7.50;2.80;;;;;;;;;;5052378;28;20082;-65
2021/06/22 05:12:24;;;;;;;10.05;2.85;;;;;;;;;;5058949;28;20274;-65
2021/06/22 05:14:49;;;;;;;9.10;3.65;;;;;;;;;;5062245;28;20028;-66
2021/06/22 05:17:15;;;;;;;10.30;3.45;;;;;;;;;;5064331;28;20025;-65
2021/06/22 05:22:07;;;;;;;5.63;3.28;;;;;;;;;;5026908;28;20072;-73
2021/06/22 05:24:33;;;;;;;10.02;4.25;;;;;;;;;;5027909;28;21066;-72
2021/06/22 05:26:58;;;;;;;8.18;3.85;;;;;;;;;;5029589;28;20019;-77
2021/06/22 05:29:23;;;;;;;9.33;4.17;;;;;;;;;;5006152;28;20112;-76
2021/06/22 05:31:49;;;;;;;12.27;4.25;;;;;;;;;;5027629;28;20288;-72
2021/06/22 05:34:14;;;;;;;11.88;4.85;;;;;;;;;;5029666;28;20379;-74
2021/06/22 05:36:39;;;;;;;9.40;4.87;;;;;;;;;;5027527;28;20033;-74
2021/06/22 05:39:05;;;;;;;8.90;4.67;;;;;;;;;;5023443;28;20330;-75
2021/06/22 05:41:30;;;;;;;15.15;5.13;;;;;;;;;;5024310;28;20264;-72
2021/06/22 05:43:55;;;;;;;13.82;5.57;;;;;;;;;;5019731;28;20017;-75
2021/06/22 05:46:20;;;;;;;13.10;6.80;;;;;;;;;;5012398;28;20022;-71
2021/06/22 05:48:45;;;;;;;7.93;4.83;;;;;;;;;;5028937;28;20256;-73
2021/06/22 05:51:11;;;;;;;11.65;5.95;;;;;;;;;;5026922;28;20722;-72
2021/06/22 05:53:36;;;;;;;13.23;5.25;;;;;;;;;;5024218;28;20499;-72
2021/06/22 05:56:01;;;;;;;11.02;5.60;;;;;;;;;;5028258;28;20602;-72
2021/06/22 05:58:27;;;;;;;11.20;5.40;;;;;;;;;;5028773;28;20045;-72
2021/06/22 06:00:52;;;;;;;12.60;4.87;;;;;;;;;;5029822;28;20112;-71
2021/06/22 06:03:17;;;;;;;12.52;5.15;;;;;;;;;;5028467;28;20291;-71
2021/06/22 06:05:42;;;;;;;13.03;4.67;;;;;;;;;;5029795;28;20423;-72
2021/06/22 06:08:07;;;;;;;8.57;4.57;;;;;;;;;;5028306;28;20283;-71
2021/06/22 06:10:33;;;;;;;10.10;4.22;;;;;;;;;;5029080;28;20455;-71
2021/06/22 06:12:58;;;;;;;12.95;4.20;;;;;;;;;;5028121;28;20025;-72
2021/06/22 06:15:23;;;;;;;9.05;3.70;;;;;;;;;;5017518;28;20402;-72
2021/06/22 06:17:49;;;;;;;10.60;4.10;;;;;;;;;;5028673;28;20190;-72
2021/06/22 06:20:14;;;;;;;9.10;3.88;;;;;;;;;;5034759;28;20017;-73
2021/06/22 06:22:41;;;;;;;8.05;3.80;;;;;;;;;;5035472;28;20087;-71
2021/06/22 06:25:07;;;;;;;6.35;3.28;;;;;;;;;;5053525;28;20025;-71
2021/06/22 06:27:46;;;;;;;12.32;4.45;;;;;;;;;;5053638;28;20521;-71
2021/06/22 06:30:14;;;;;;;8.57;3.22;;;;;;;;;;5047840;28;20096;-71
2021/06/22 06:32:39;;;;;;;11.35;3.67;;;;;;;;;;5053631;28;20540;-73
2021/06/22 06:35:05;;;;;;;10.68;4.15;;;;;;;;;;5053441;28;20032;-71
2021/06/22 06:37:30;;;;;;;8.60;3.50;;;;;;;;;;5052764;28;20025;-71
2021/06/22 06:39:56;;;;;;;9.70;3.42;;;;;;;;;;5052984;28;20029;-72
2021/06/22 06:42:21;;;;;;;10.07;5.18;;;;;;;;;;5052311;28;20025;-71
2021/06/22 06:44:46;;;;;;;10.05;4.15;;;;;;;;;;5052662;28;20025;-72
2021/06/22 06:47:11;;;;;;;9.37;3.80;;;;;;;;;;5051603;28;20399;-71
2021/06/22 06:49:37;;;;;;;12.93;4.40;;;;;;;;;;5050094;28;20283;-71
2021/06/22 06:52:05;;;;;;;8.13;4.60;;;;;;;;;;5050893;28;20358;-71
2021/06/22 06:54:31;;;;;;;8.65;4.65;;;;;;;;;;5052341;28;20275;-71
2021/06/22 06:56:57;;;;;;;9.23;3.78;;;;;;;;;;5051467;28;20078;-72
2021/06/22 06:59:22;;;;;;;7.28;4.15;;;;;;;;;;5052595;28;20036;-70
2021/06/22 07:01:47;;;;;;;12.70;4.53;;;;;;;;;;5052577;28;20100;-71
2021/06/22 07:04:13;;;;;;;9.82;4.63;;;;;;;;;;5052086;28;20024;-71
2021/06/22 07:06:38;;;;;;;7.05;3.63;;;;;;;;;;5051539;28;20060;-71
2021/06/22 07:09:03;;;;;;;6.88;4.07;;;;;;;;;;5052313;28;20013;-71
2021/06/22 07:11:28;;;;;;;9.30;4.55;;;;;;;;;;5052091;28;20529;-71
2021/06/22 07:13:54;;;;;;;15.00;5.65;;;;;;;;;;5051354;28;20025;-71
2021/06/22 07:16:19;;;;;;;9.70;5.55;;;;;;;;;;5050294;28;20078;-71
2021/06/22 07:18:44;;;;;;;10.67;4.90;;;;;;;;;;5051426;28;20084;-71
2021/06/22 07:21:09;;;;;;;10.18;4.50;;;;;;;;;;5051514;28;20309;-71
2021/06/22 07:23:35;;;;;;;9.25;5.10;;;;;;;;;;5051935;28;20025;-72
2021/06/22 07:26:00;;;;;;;10.18;4.35;;;;;;;;;;5051924;28;20025;-71
2021/06/22 07:28:25;;;;;;;16.20;4.97;;;;;;;;;;5029276;28;20024;-72
2021/06/22 07:30:51;;;;;;;13.27;4.90;;;;;;;;;;5051780;28;20025;-71
2021/06/22 07:33:16;;;;;;;12.50;3.53;;;;;;;;;;5052012;28;20303;-71
2021/06/22 07:35:42;;;;;;;11.55;4.22;;;;;;;;;;5051868;28;20386;-71
2021/06/22 07:38:07;;;;;;;10.43;3.47;;;;;;;;;;5052171;28;20323;-70
2021/06/22 07:40:32;;;;;;;8.95;3.42;;;;;;;;;;5051886;28;20020;-70
2021/06/22 07:42:57;;;;;;;6.15;3.00;;;;;;;;;;5051475;28;20017;-70
2021/06/22 07:45:23;;;;;;;5.40;2.75;;;;;;;;;;5051122;28;20017;-70
2021/06/22 07:47:49;;;;;;;5.63;2.80;;;;;;;;;;5051819;28;21771;-71
2021/06/22 07:50:14;;;;;;;8.15;2.42;;;;;;;;;;5051497;28;20013;-71
2021/06/22 07:52:40;;;;;;;6.55;2.47;;;;;;;;;;5051765;28;20529;-71
2021/06/22 07:55:06;;;;;;;9.63;3.08;;;;;;;;;;5033826;28;20060;-70
2021/06/22 07:57:31;;;;;;;9.73;2.92;;;;;;;;;;5040213;28;20025;-70
2021/06/22 07:59:56;;;;;;;8.95;2.65;;;;;;;;;;5050547;28;20036;-71
2021/06/22 08:02:22;;;;;;;3.67;2.23;;;;;;;;;;5048590;28;20075;-71
2021/06/22 08:04:47;;;;;;;6.47;2.17;;;;;;;;;;5050834;28;20350;-70
2021/06/22 08:07:12;;;;;;;12.20;3.58;;;;;;;;;;5051496;28;20270;-71
2021/06/22 08:09:37;;;;;;;10.55;3.55;;;;;;;;;;5051646;28;20028;-70
2021/06/22 08:12:03;;;;;;;11.40;3.75;;;;;;;;;;5050508;28;20092;-71
2021/06/22 08:14:28;;;;;;;11.23;4.63;;;;;;;;;;5051314;28;20036;-70
2021/06/22 08:16:53;;;;;;;14.17;5.00;;;;;;;;;;5051278;28;20064;-70
2021/06/22 08:19:19;;;;;;;10.70;4.30;;;;;;;;;;5051285;28;20595;-70
2021/06/22 08:21:44;;;;;;;16.33;4.47;;;;;;;;;;5050643;28;20310;-70
2021/06/22 08:24:09;;;;;;;11.95;4.05;;;;;;;;;;5051299;28;20024;-70
2021/06/22 08:26:34;;;;;;;8.88;3.90;;;;;;;;;;5031761;28;20056;-71
2021/06/22 08:29:01;;;;;;;8.07;4.27;;;;;;;;;;5050948;28;20021;-72
2021/06/22 08:31:26;;;;;;;12.63;4.32;;;;;;;;;;5050809;28;20339;-71
2021/06/22 08:33:51;;;;;;;9.60;3.57;;;;;;;;;;5051143;28;20139;-72
2021/06/22 08:36:16;;;;;;;9.53;4.00;;;;;;;;;;5050071;28;20267;-71
2021/06/22 08:38:41;;;;;;;12.35;4.40;;;;;;;;;;5050727;28;21044;-72
2021/06/22 08:41:07;;;;;;;12.43;3.63;;;;;;;;;;5050884;28;20482;-71
2021/06/22 08:43:32;;;;;;;11.75;4.50;;;;;;;;;;5048826;28;20349;-71
2021/06/22 08:46:00;;;;;;;10.73;4.15;;;;;;;;;;5029520;28;20036;-72
2021/06/22 08:48:26;;;;;;;11.43;4.20;;;;;;;;;;5050586;28;20534;-72
2021/06/22 08:50:52;;;;;;;12.30;4.07;;;;;;;;;;5050881;28;20024;-71
2021/06/22 08:53:17;;;;;;;10.18;3.47;;;;;;;;;;5050144;28;20384;-71
2021/06/22 08:55:43;;;;;;;12.90;4.20;;;;;;;;;;5050233;28;20017;-72
2021/06/22 08:58:09;;;;;;;11.98;2.95;;;;;;;;;;5050088;28;20029;-71
2021/06/22 09:00:37;;;;;;;8.82;3.10;;;;;;;;;;5050478;28;20029;-72
2021/06/22 09:03:13;;;;;;;5.90;2.40;;;;;;;;;;5050991;28;20021;-72
2021/06/22 09:05:48;;;;;;;7.35;3.00;;;;;;;;;;5050335;28;20032;-71
2021/06/22 09:08:24;;;;;;;7.72;3.45;;;;;;;;;;5050544;28;20017;-72
2021/06/22 09:10:51;;;;;;;6.80;3.03;;;;;;;;;;5050035;28;20025;-72
2021/06/22 09:13:17;;;;;;;7.35;2.72;;;;;;;;;;5050673;28;20451;-72
2021/06/22 09:15:44;;;;;;;7.10;2.85;;;;;;;;;;5045856;28;20100;-71
2021/06/22 09:18:24;;;;;;;4.88;2.50;;;;;;;;;;5031565;28;20633;-71
2021/06/22 09:20:50;;;;;;;8.23;2.65;;;;;;;;;;5050468;28;20039;-72
2021/06/22 09:23:17;;;;;;;6.57;2.25;;;;;;;;;;5050692;28;20024;-71
2021/06/22 09:25:43;;;;;;;10.75;2.65;;;;;;;;;;5050247;28;20502;-72
2021/06/22 09:28:08;;;;;;;8.20;2.97;;;;;;;;;;5050571;28;20157;-72
2021/06/22 09:30:36;;;;;;;12.88;3.47;;;;;;;;;;5050215;28;20020;-72
2021/06/22 09:33:31;;;;;;;9.70;3.42;;;;;;;;;;5050063;28;20017;-73
2021/06/22 09:36:25;;;;;;;8.93;2.65;;;;;;;;;;5031815;28;20029;-72
2021/06/22 09:38:52;;;;;;;6.32;1.70;;;;;;;;;;5043620;28;20487;-72
2021/06/22 09:41:20;;;;;;;12.68;3.67;;;;;;;;;;5049024;28;20139;-72
2021/06/22 09:44:01;;;;;;;7.35;3.10;;;;;;;;;;5049095;28;20429;-72
2021/06/22 09:46:30;;;;;;;9.43;3.42;;;;;;;;;;5048205;28;20063;-73
2021/06/22 09:48:57;;;;;;;11.10;3.53;;;;;;;;;;5049397;28;20029;-71
2021/06/22 09:51:29;;;;;;;14.27;3.65;;;;;;;;;;5050188;28;20114;-72
2021/06/22 09:53:54;;;;;;;9.10;3.28;;;;;;;;;;5049765;28;20029;-72
2021/06/22 09:56:22;;;;;;;13.65;3.80;;;;;;;;;;5054830;28;20025;-73
2021/06/22 09:58:47;;;;;;;5.50;2.97;;;;;;;;;;5052348;28;20070;-72
2021/06/22 10:01:25;;;;;;;9.70;3.63;;;;;;;;;;5053115;28;20048;-72
2021/06/22 10:03:50;;;;;;;7.65;3.80;;;;;;;;;;5052552;28;20025;-74
2021/06/22 10:06:16;;;;;;;11.45;3.80;;;;;;;;;;5052850;28;20021;-73
2021/06/22 10:08:55;;;;;;;6.80;3.05;;;;;;;;;;5053104;28;20092;-72
2021/06/22 10:11:30;;;;;;;9.73;3.20;;;;;;;;;;5050892;28;20028;-72
2021/06/22 10:13:56;;;;;;;17.25;4.70;;;;;;;;;;5046756;28;20039;-72
2021/06/22 10:16:22;;;;;;;4.78;2.92;;;;;;;;;;5047751;28;20022;-72
2021/06/22 10:18:47;;;;;;;9.32;3.90;;;;;;;;;;5045592;28;20095;-72
2021/06/22 10:21:13;;;;;;;6.28;3.15;;;;;;;;;;5052905;28;20116;-72
2021/06/22 10:23:38;;;;;;;6.57;3.15;;;;;;;;;;5052675;28;20372;-73
2021/06/22 10:26:03;;;;;;;3.83;2.13;;;;;;;;;;5052116;28;20117;-72
2021/06/22 10:28:29;;;;;;;6.03;3.07;;;;;;;;;;5053386;28;20028;-72
2021/06/22 10:30:54;;;;;;;4.50;2.40;;;;;;;;;;5053178;28;20263;-72
2021/06/22 10:33:19;;;;;;;7.33;2.47;;;;;;;;;;5053290;28;20446;-72
2021/06/22 10:35:45;;;;;;;14.57;3.60;;;;;;;;;;5052942;28;20271;-72
2021/06/22 10:38:11;;;;;;;12.15;3.58;;;;;;;;;;5053144;28;20693;-73
2021/06/22 10:40:37;;;;;;;11.10;2.65;;;;;;;;;;5052386;28;20075;-72
2021/06/22 10:43:03;;;;;;;7.00;3.05;;;;;;;;;;5035428;28;20029;-72
2021/06/22 10:45:28;;;;;;;9.70;3.35;;;;;;;;;;5052662;28;20025;-72
2021/06/22 10:47:56;;;;;;;5.43;3.33;;;;;;;;;;5052622;28;20013;-72
2021/06/22 10:50:21;;;;;;;10.32;4.20;;;;;;;;;;5052223;28;20017;-72
2021/06/22 10:52:49;;;;;;;6.13;3.00;;;;;;;;;;5047894;28;20403;-72
2021/06/22 10:55:22;;;;;;;7.88;3.47;;;;;;;;;;5034365;28;20274;-72
2021/06/22 10:57:54;;;;;;;7.03;3.28;;;;;;;;;;5052708;28;20029;-73
2021/06/22 11:00:19;;;;;;;7.20;3.53;;;;;;;;;;5052206;28;20070;-72
2021/06/22 11:03:02;;;;;;;15.80;3.28;;;;;;;;;;5051860;28;20041;-72
2021/06/22 11:05:27;;;;;;;7.65;3.35;;;;;;;;;;5051422;28;20028;-73
2021/06/22 11:08:08;;;;;;;5.18;2.92;;;;;;;;;;5052725;28;20013;-73
2021/06/22 11:10:33;;;;;;;9.07;3.55;;;;;;;;;;5051805;28;20020;-72
2021/06/22 11:12:59;;;;;;;6.28;3.22;;;;;;;;;;5052467;28;20032;-73
2021/06/22 11:15:42;;;;;;;7.70;3.50;;;;;;;;;;5033693;28;20036;-72
2021/06/22 11:18:10;;;;;;;13.38;3.85;;;;;;;;;;5052180;28;20025;-73
2021/06/22 11:20:35;;;;;;;9.45;3.28;;;;;;;;;;5062674;22;20048;-64
2021/06/22 11:23:00;;;;;;;6.47;3.60;;;;;;;;;;5041302;28;20037;-64
2021/06/22 11:25:44;;;;;;;11.32;3.75;;;;;;;;;;5045867;28;20032;-65
2021/06/22 11:28:10;;;;;;;12.73;3.42;;;;;;;;;;5049942;28;20386;-65
2021/06/22 11:30:53;;;;;;;13.23;4.20;;;;;;;;;;5051994;28;20036;-66
2021/06/22 11:33:28;;;;;;;10.48;3.30;;;;;;;;;;5051933;28;20264;-65
2021/06/22 11:36:13;;;;;;;10.15;3.30;;;;;;;;;;5033659;28;20029;-65
2021/06/22 11:38:38;;;;;;;12.15;3.63;;;;;;;;;;5041192;28;20104;-68
2021/06/22 11:41:13;;;;;;;6.20;2.93;;;;;;;;;;5051682;28;20096;-65
2021/06/22 11:43:58;;;;;;;6.25;2.80;;;;;;;;;;5051279;28;20624;-67
2021/06/22 11:46:28;;;;;;;13.27;3.10;;;;;;;;;;5036777;28;20095;-67
2021/06/22 11:48:56;;;;;;;8.27;4.00;;;;;;;;;;5051411;28;20430;-65
2021/06/22 11:51:40;;;;;;;5.63;2.92;;;;;;;;;;5033398;28;20116;-65
2021/06/22 11:54:05;;;;;;;7.15;3.55;;;;;;;;;;5050971;28;20108;-66
2021/06/22 11:56:31;;;;;;;10.98;3.85;;;;;;;;;;5050457;28;20120;-66
2021/06/22 11:58:56;;;;;;;10.75;4.15;;;;;;;;;;5050137;28;20056;-65
2021/06/22 12:01:23;;;;;;;8.23;4.00;;;;;;;;;;5050805;28;20029;-65
2021/06/22 12:03:52;;;;;;;14.13;4.10;;;;;;;;;;5050888;28;20056;-67
2021/06/22 12:06:20;;;;;;;10.65;4.93;;;;;;;;;;5050766;28;20013;-67
2021/06/22 12:08:45;;;;;;;10.50;4.45;;;;;;;;;;5049318;28;20032;-66
2021/06/22 12:11:12;;;;;;;10.50;4.50;;;;;;;;;;5051049;28;20024;-65
2021/06/22 12:13:42;;;;;;;15.25;5.35;;;;;;;;;;5050732;28;20272;-65
2021/06/22 12:16:32;;;;;;;10.65;4.78;;;;;;;;;;5050161;28;20020;-68
2021/06/22 12:18:59;;;;;;;11.20;4.63;;;;;;;;;;5040533;28;20106;-66
2021/06/22 12:21:26;;;;;;;13.50;4.70;;;;;;;;;;5050613;28;20021;-67
2021/06/22 12:23:51;;;;;;;11.98;4.90;;;;;;;;;;5050997;28;20505;-65
2021/06/22 12:26:16;;;;;;;9.05;4.10;;;;;;;;;;5050630;28;20017;-65
2021/06/22 12:28:43;;;;;;;9.77;5.00;;;;;;;;;;5045799;28;20106;-67
2021/06/22 12:31:08;;;;;;;8.30;4.40;;;;;;;;;;5050329;28;20021;-67
2021/06/22 12:33:38;;;;;;;7.80;4.80;;;;;;;;;;5051304;28;20025;-66
2021/06/22 12:36:05;;;;;;;9.00;4.88;;;;;;;;;;5051014;28;20020;-65
2021/06/22 12:38:31;;;;;;;13.48;5.00;;;;;;;;;;5049937;28;20391;-65
2021/06/22 12:40:57;;;;;;;10.32;5.10;;;;;;;;;;5048890;28;20100;-66
2021/06/22 12:43:41;;;;;;;20.17;6.45;;;;;;;;;;5046394;28;20115;-66
2021/06/22 12:46:06;;;;;;;11.85;4.88;;;;;;;;;;5042189;28;20391;-65
2021/06/22 12:48:37;;;;;;;18.58;5.43;;;;;;;;;;5109675;27;20221;-66
2021/06/22 12:51:03;;;;;;;10.18;5.45;;;;;;;;;;5095179;28;20157;-66
2021/06/22 12:53:31;;;;;;;16.77;4.68;;;;;;;;;;5080634;28;20028;-66
2021/06/22 12:56:13;;;;;;;8.63;4.72;;;;;;;;;;5088111;28;20193;-66
2021/06/22 12:58:48;;;;;;;9.75;5.30;;;;;;;;;;5083240;28;20058;-66
2021/06/22 13:01:33;;;;;;;16.63;5.75;;;;;;;;;;5074746;28;20182;-66
2021/06/22 13:03:59;;;;;;;17.83;6.00;;;;;;;;;;5079717;28;20015;-66
2021/06/22 13:06:26;;;;;;;12.07;5.38;;;;;;;;;;5091239;28;20058;-65
2021/06/22 13:08:53;;;;;;;7.00;4.70;;;;;;;;;;5081064;28;20123;-66
2021/06/22 13:11:22;;;;;;;10.77;4.97;;;;;;;;;;5078991;28;20021;-66
2021/06/22 13:13:48;;;;;;;9.57;4.25;;;;;;;;;;5068782;28;20028;-66
2021/06/22 13:16:14;;;;;;;9.73;5.13;;;;;;;;;;5066993;28;20388;-66
2021/06/22 13:18:56;;;;;;;9.15;4.68;;;;;;;;;;5082282;28;20258;-68
2021/06/22 13:21:22;;;;;;;10.55;4.55;;;;;;;;;;5073051;28;20496;-66
2021/06/22 13:23:47;;;;;;;9.88;4.97;;;;;;;;;;5071897;28;20029;-66
2021/06/22 13:26:12;;;;;;;9.57;5.27;;;;;;;;;;5087746;28;20013;-66
2021/06/22 13:28:37;;;;;;;12.07;5.50;;;;;;;;;;5082812;28;20297;-66
2021/06/22 13:31:12;;;;;;;15.47;7.03;;;;;;;;;;5072322;28;20267;-66
2021/06/22 13:33:37;;;;;;;9.50;5.82;;;;;;;;;;5087202;28;20250;-66
2021/06/22 13:36:03;;;;;;;12.18;5.53;;;;;;;;;;5088436;28;20153;-66
2021/06/22 13:38:29;;;;;;;13.35;5.82;;;;;;;;;;5101118;28;20020;-66
2021/06/22 13:40:55;;;;;;;13.15;6.43;;;;;;;;;;5084975;28;20495;-66
2021/06/22 13:43:22;;;;;;;10.85;6.93;;;;;;;;;;5068845;28;20031;-66
2021/06/22 13:45:57;;;;;;;12.23;6.88;;;;;;;;;;5078011;28;20054;-66
2021/06/22 13:48:31;;;;;;;10.93;6.80;;;;;;;;;;5066412;28;20106;-66
2021/06/22 13:51:07;;;;;;;9.48;6.55;;;;;;;;;;5079104;28;20012;-66
2021/06/22 13:53:33;;;;;;;10.77;6.82;;;;;;;;;;5081254;28;20035;-66
2021/06/22 13:55:59;;;;;;;20.90;8.10;;;;;;;;;;5066066;28;20457;-66
2021/06/22 13:58:25;;;;;;;14.80;8.10;;;;;;;;;;5062059;28;20036;-67
2021/06/22 14:00:51;;;;;;;18.85;7.70;;;;;;;;;;5058867;28;20039;-66
2021/06/22 14:03:16;;;;;;;11.40;6.50;;;;;;;;;;5063961;28;20358;-66
2021/06/22 14:05:43;;;;;;;22.02;7.80;;;;;;;;;;5060680;28;20069;-66
2021/06/22 14:08:08;;;;;;;23.63;7.82;;;;;;;;;;5071547;28;20024;-66
2021/06/22 14:10:34;;;;;;;12.35;7.43;;;;;;;;;;5066170;28;20426;-66
2021/06/22 14:13:00;;;;;;;13.55;8.57;;;;;;;;;;5052814;28;20020;-66
2021/06/22 14:15:26;;;;;;;16.38;8.43;;;;;;;;;;5069598;28;20020;-66
2021/06/22 14:17:53;;;;;;;15.55;8.13;;;;;;;;;;5061908;28;20115;-66
2021/06/22 14:20:18;;;;;;;15.32;8.35;;;;;;;;;;5056112;28;20029;-66
2021/06/22 14:22:43;;;;;;;15.77;8.50;;;;;;;;;;5061818;28;20111;-66
2021/06/22 14:25:09;;;;;;;13.40;8.70;;;;;;;;;;5059271;28;20035;-66
2021/06/22 14:27:34;;;;;;;18.42;8.35;;;;;;;;;;5052309;28;20374;-66
2021/06/22 14:29:59;;;;;;;23.23;10.07;;;;;;;;;;5060109;28;20108;-66
2021/06/22 14:32:25;;;;;;;16.83;9.23;;;;;;;;;;5065141;28;20763;-66
2021/06/22 14:34:50;;;;;;;16.60;9.02;;;;;;;;;;5072787;28;20822;-66
2021/06/22 14:37:16;;;;;;;14.77;9.30;;;;;;;;;;5084900;28;20087;-66